Aérodrome :
LOGIN :

S'inscrire | Disclaimer

   EN    FR    IT 

 










Légende :    VFR   VFR Marginal   IFR   IFR Intensif   IFR Très Intensif
Visi : 
Plafond : 
>= 8 km
>= 3000ft
5 à 8 km
1000 à 3000 ft
1500m à 5 km
500 à 1000 ft
800 à 1500m
200 à 500 ft
< 800m
< 200 ft
Symboles :   Orages  Brouillard  Fortes neiges  Fortes précipitations  Vent > 20 kt
SIGMETs :   Divers  Orages  Givrage  Turbulence  Onde Orograph.  Cendres Volcan.







- Altitude de l'aérodrome : 74 ft
- Code IATA : EIN


EHEH - Eindhoven

DERNIER METAR :
  • 272304Z AUTO 11003KT 060V130 2800 BR OVC110 18/17 Q1017 YLO

METARs EXPIRÉS :
  • 272257Z AUTO VRB02KT 9999 OVC110 18/17 Q1017 BLU
  • 272255Z AUTO VRB01KT 3000 BR OVC100 18/17 Q1017 YLO
  • 272245Z AUTO 31001KT 3500 R03/P3000N BR OVC100 18/17 Q1017 YLO VRB04KT 8000 -SHRA FEW030 FEW060CB BKN110
  • 272242Z AUTO 02002KT 9999 -DZ FEW057 OVC099 18/17 Q1017 BLU VRB04KT 8000 -SHRA FEW030 FEW060CB BKN110
  • 272237Z AUTO 05002KT 7000 -DZRA FEW057 BKN094 OVC100 18/17 Q1017 WHT VRB04KT 8000 -SHRA FEW030 FEW060CB BKN110
  • 272233Z AUTO 07003KT 7000 -RA FEW057 OVC094 19/17 Q1017 WHT VRB04KT 8000 -SHRA FEW030 FEW060CB BKN110
  • 272225Z AUTO 07002KT 5000 -RA FEW002/// BKN094/// OVC100/// 19/17 Q1017 WHT VRB04KT 9999 FEW030 FEW060CB BKN110
  • 272214Z AUTO 05002KT 5000 -RA FEW095 OVC100 19/17 Q1017 WHT VRB04KT 9999 FEW030 FEW060CB BKN110
  • 272210Z AUTO VRB02KT 9999 FEW097 OVC100 19/17 Q1017 BLU VRB04KT 9999 FEW030 FEW060CB BKN110
  • 272201Z AUTO VRB02KT 9999 -DZ OVC100 19/17 Q1017 BLU VRB04KT 9999 FEW030 FEW060CB BKN110
  • 272155Z AUTO 09003KT 060V120 9999 -DZRA FEW080 OVC100 19/17 Q1017 BLU VRB04KT 9999 FEW030 FEW060CB BKN110
  • 272125Z AUTO 06004KT 9999 OVC100 19/17 Q1017 BLU VRB04KT 9999 FEW030 FEW060CB BKN110
  • 272055Z AUTO 09005KT 070V130 9999 -RA FEW023 SCT036 BKN061 20/17 Q1017 BLU VRB04KT 9999 FEW030 FEW060CB BKN110
  • 272025Z AUTO 09004KT 060V130 9999 FEW097 OVC100 19/17 Q1016 BLU VRB04KT 9999 FEW060CB BKN110

TAF AMD TAF EHEH
Valide du 27 à 18h jusqu'au 29 à 00h UTC


271837Z 2718/2824 16004KT CAVOK
PROB30
TEMPO 2719/2721 SCT040 BKN050CB
BECMG 2721/2723 VRB03KT
PROB30 2801/2805 2000 MIFG
BECMG 2810/2813 05005KT
PROB30
TEMPO 2818/2824 4000 TSRA SCT040 BKN045CB
Pas de NOTAMs connus pour ce terrain.



MET'MAP, la Météo Aéronautique d'un coup d'oeil ! - Copyright ORBIFLY Décembre 2007 - Disclaimer

ORBIFLY MET'MAP TEAM :

Programmation & Développement : Alexandra Zaïnal
Conception & Développement : Baudouin d'Aumeries
Co-Programmation & Développement : Marc-Olivier Méhu
Soutien technique & logistique : Manuel Goepfert

Contact : metmap@orbifly.com




SOURCES & CREDITS :

   NOAA